Time;durP1;ratioP1;P1;durP2;ratioP2;P2;SDS_P1;SDS_P2;PMS_P1;PMS_P2;Temp;Humidity;BMP_temperature;BMP_pressure;BME280_temperature;BME280_humidity;BME280_pressure;Samples;Min_cycle;Max_cycle;Signal;HPM_P1;HPM_P2
2022/04/08 00:01:19;;;;;;;21.85;18.30;;;;;;;10.21;80.90;98905.09;6035691;23;20072;-76
2022/04/08 00:03:49;;;;;;;23.17;17.25;;;;;;;10.06;81.24;98879.22;6057501;23;20572;-77
2022/04/08 00:06:15;;;;;;;23.38;20.52;;;;;;;10.39;80.28;98903.81;6064421;23;20093;-77
2022/04/08 00:08:41;;;;;;;22.20;18.63;;;;;;;9.84;81.65;98861.38;6062213;23;20324;-77
2022/04/08 00:11:14;;;;;;;23.55;20.05;;;;;;;10.18;81.13;98873.69;6059015;23;20014;-77
2022/04/08 00:13:40;;;;;;;27.30;19.75;;;;;;;10.12;81.15;98895.66;6057618;23;20038;-77
2022/04/08 00:16:07;;;;;;;21.92;19.00;;;;;;;9.86;80.63;98874.44;6058643;23;20011;-76
2022/04/08 00:18:36;;;;;;;22.83;18.90;;;;;;;10.15;81.11;98913.09;6057012;23;20106;-76
2022/04/08 00:21:01;;;;;;;21.98;19.63;;;;;;;9.90;81.05;98870.84;6053123;23;20046;-75
2022/04/08 00:23:27;;;;;;;23.48;18.00;;;;;;;10.12;80.77;98894.81;6058473;23;20018;-75
2022/04/08 00:25:54;;;;;;;20.25;18.08;;;;;;;10.02;80.97;98915.13;6059719;23;20034;-75
2022/04/08 00:28:19;;;;;;;27.70;21.10;;;;;;;10.25;81.49;98911.97;6059936;23;20073;-76
2022/04/08 00:30:46;;;;;;;22.20;18.65;;;;;;;10.22;81.09;98912.03;6058311;23;20473;-78
2022/04/08 00:33:13;;;;;;;27.48;19.58;;;;;;;10.24;80.97;98907.63;6056447;23;20311;-79
2022/04/08 00:35:40;;;;;;;22.95;17.88;;;;;;;10.16;80.45;98917.44;6056788;23;20438;-77
2022/04/08 00:38:07;;;;;;;21.45;19.33;;;;;;;9.87;80.90;98863.91;6059652;23;20043;-78
2022/04/08 00:40:36;;;;;;;23.98;20.23;;;;;;;10.03;80.47;98880.16;6057094;23;20019;-76
2022/04/08 00:43:16;;;;;;;25.02;18.85;;;;;;;9.93;80.93;98861.16;6059901;23;20015;-77
2022/04/08 00:45:42;;;;;;;21.48;19.33;;;;;;;10.17;80.17;98911.28;6023261;23;20026;-78
2022/04/08 00:48:09;;;;;;;21.52;18.67;;;;;;;9.90;80.87;98868.22;6057146;23;20015;-77
2022/04/08 00:50:39;;;;;;;26.42;19.52;;;;;;;9.74;80.66;98872.94;6061212;23;20019;-78
2022/04/08 00:53:06;;;;;;;27.15;19.95;;;;;;;9.75;80.55;98858.94;6056559;23;20019;-77
2022/04/08 00:55:41;;;;;;;26.83;20.10;;;;;;;10.22;80.77;98906.81;6058493;23;20037;-79
2022/04/08 00:58:07;;;;;;;26.02;20.23;;;;;;;10.26;80.68;98913.72;6057133;23;20119;-78
2022/04/08 01:00:38;;;;;;;24.02;20.42;;;;;;;10.30;80.43;98906.66;6056343;23;20105;-79
2022/04/08 01:03:08;;;;;;;24.88;20.92;;;;;;;9.93;80.75;98910.09;6061181;23;20034;-79
2022/04/08 01:05:34;;;;;;;26.52;21.98;;;;;;;9.97;81.34;98911.72;6057583;23;20023;-79
2022/04/08 01:08:00;;;;;;;26.90;22.05;;;;;;;9.92;81.45;98908.34;6036558;23;20026;-77
2022/04/08 01:10:26;;;;;;;28.35;23.70;;;;;;;9.77;81.61;98909.53;6059790;23;20015;-76
2022/04/08 01:12:52;;;;;;;28.42;24.05;;;;;;;9.90;81.79;98916.25;6061625;23;20104;-77
2022/04/08 01:15:19;;;;;;;26.50;22.48;;;;;;;9.98;81.63;98910.00;6059807;23;20023;-76
2022/04/08 01:17:46;;;;;;;28.63;21.90;;;;;;;9.46;82.22;98875.28;6055187;23;20080;-75
2022/04/08 01:20:12;;;;;;;25.92;21.58;;;;;;;9.77;81.94;98901.69;6053153;23;20470;-76
2022/04/08 01:22:41;;;;;;;26.48;21.58;;;;;;;9.70;81.92;98934.13;6034257;23;20015;-76
2022/04/08 01:25:08;;;;;;;29.70;22.83;;;;;;;9.34;83.83;98949.69;6059310;23;20422;-76
2022/04/08 01:27:35;;;;;;;27.02;24.13;;;;;;;9.41;83.66;98937.31;6059022;23;20497;-76
2022/04/08 01:30:02;;;;;;;28.65;23.83;;;;;;;9.29;83.54;98896.53;6056492;23;20031;-76
2022/04/08 01:32:29;;;;;;;31.30;24.52;;;;;;;9.52;83.81;98936.22;6056255;23;20018;-78
2022/04/08 01:34:55;;;;;;;29.85;24.15;;;;;;;9.32;83.71;98925.28;6057089;23;20021;-77
2022/04/08 01:37:21;;;;;;;28.98;23.60;;;;;;;9.27;84.50;98934.97;6060028;23;20058;-75
2022/04/08 01:39:47;;;;;;;28.15;22.92;;;;;;;9.26;85.04;98930.63;6059683;23;20027;-75
2022/04/08 01:42:16;;;;;;;31.30;23.10;;;;;;;9.22;84.43;98908.88;6060538;23;20068;-75
2022/04/08 01:44:41;;;;;;;24.67;21.92;;;;;;;9.43;84.08;98919.81;6060007;23;20019;-75
2022/04/08 01:47:07;;;;;;;26.50;23.67;;;;;;;9.48;83.65;98924.09;6052337;23;20022;-77
2022/04/08 01:49:33;;;;;;;25.95;22.25;;;;;;;9.17;84.11;98918.56;6057836;23;20501;-76
2022/04/08 01:51:58;;;;;;;28.52;23.70;;;;;;;9.27;83.52;98914.91;6060683;23;20007;-75
2022/04/08 01:54:24;;;;;;;24.25;20.60;;;;;;;9.29;83.51;98922.72;6059425;23;20482;-75
2022/04/08 01:56:51;;;;;;;29.67;22.15;;;;;;;9.03;83.63;98889.19;6057392;23;20019;-76
2022/04/08 01:59:16;;;;;;;27.13;20.58;;;;;;;9.20;83.65;98917.66;6056827;23;20040;-76
2022/04/08 02:01:43;;;;;;;29.02;23.13;;;;;;;9.16;84.42;98944.78;6058669;23;20013;-75
2022/04/08 02:04:09;;;;;;;27.05;23.10;;;;;;;9.36;83.53;98934.78;6034040;23;20015;-77
2022/04/08 02:06:36;;;;;;;29.08;20.88;;;;;;;9.25;83.46;98914.06;6056873;23;20031;-77
2022/04/08 02:09:03;;;;;;;33.00;21.27;;;;;;;9.39;83.07;98934.75;6058631;23;20015;-77
2022/04/08 02:11:28;;;;;;;28.00;22.92;;;;;;;9.13;83.49;98898.59;6057426;23;20011;-77
2022/04/08 02:13:54;;;;;;;25.33;20.00;;;;;;;9.42;83.39;98955.63;6047340;23;20353;-77
2022/04/08 02:16:20;;;;;;;27.25;21.75;;;;;;;9.20;83.90;98943.81;6077106;23;20011;-77
2022/04/08 02:18:45;;;;;;;33.75;21.13;;;;;;;9.04;83.88;98935.41;6051725;23;20515;-77
2022/04/08 02:21:11;;;;;;;25.20;20.48;;;;;;;8.73;84.45;98914.13;6052551;23;20154;-78
2022/04/08 02:23:37;;;;;;;23.98;21.33;;;;;;;9.05;84.02;98922.28;6055772;23;20029;-77
2022/04/08 02:26:05;;;;;;;29.50;21.85;;;;;;;9.27;83.60;98950.66;6058513;23;20385;-77
2022/04/08 02:28:34;;;;;;;23.33;20.83;;;;;;;9.23;83.55;98946.41;6059842;23;20025;-77
2022/04/08 02:31:00;;;;;;;29.45;21.55;;;;;;;9.01;83.98;98932.81;6058401;23;20069;-77
2022/04/08 02:33:25;;;;;;;27.80;21.30;;;;;;;8.95;84.58;98914.63;6057519;23;20459;-77
2022/04/08 02:35:52;;;;;;;25.45;21.20;;;;;;;8.95;84.06;98920.72;6056659;23;20045;-77
2022/04/08 02:38:18;;;;;;;25.92;21.70;;;;;;;8.87;83.87;98917.34;6058042;23;20023;-77
2022/04/08 02:40:44;;;;;;;31.13;20.30;;;;;;;8.91;84.51;98960.03;6057359;23;20046;-77
2022/04/08 02:43:09;;;;;;;29.60;19.92;;;;;;;8.66;84.43;98923.81;6059317;23;20439;-77
2022/04/08 02:45:36;;;;;;;27.33;21.98;;;;;;;9.18;83.80;98963.94;6058590;23;20027;-77
2022/04/08 02:48:02;;;;;;;32.85;21.58;;;;;;;8.87;84.57;98960.09;6032724;23;20030;-77
2022/04/08 02:50:28;;;;;;;26.30;19.83;;;;;;;8.93;84.21;98929.50;6056126;23;20470;-78
2022/04/08 02:52:54;;;;;;;31.88;22.58;;;;;;;8.90;83.92;98921.66;6057455;23;20023;-78
2022/04/08 02:55:19;;;;;;;25.65;21.38;;;;;;;8.86;84.08;98924.34;6058254;23;20444;-77
2022/04/08 02:57:46;;;;;;;24.35;21.10;;;;;;;8.98;83.19;98935.50;6067543;23;20082;-77
2022/04/08 03:00:20;;;;;;;23.45;20.20;;;;;;;8.94;83.35;98947.75;6057439;23;20027;-77
2022/04/08 03:02:47;;;;;;;22.90;18.95;;;;;;;8.84;83.34;98956.66;6056902;23;20070;-77
2022/04/08 03:05:14;;;;;;;27.00;19.20;;;;;;;8.99;82.71;98945.06;6056758;23;20023;-77
2022/04/08 03:07:41;;;;;;;38.03;22.38;;;;;;;8.88;82.91;98956.56;6056721;23;20069;-75
2022/04/08 03:10:09;;;;;;;31.08;21.70;;;;;;;8.95;83.45;98982.66;6056626;23;20038;-76
2022/04/08 03:12:36;;;;;;;27.25;19.70;;;;;;;8.99;83.80;99002.63;6056263;23;20330;-75
2022/04/08 03:15:02;;;;;;;25.55;21.35;;;;;;;8.96;83.24;98987.84;6058264;23;20023;-76
2022/04/08 03:17:28;;;;;;;20.33;17.05;;;;;;;8.99;82.88;99005.22;6056928;23;20379;-77
2022/04/08 03:19:54;;;;;;;22.80;19.10;;;;;;;9.09;83.69;99017.28;6054767;23;20022;-77
2022/04/08 03:22:20;;;;;;;20.67;18.52;;;;;;;9.15;83.31;99009.31;6053619;23;20015;-76
2022/04/08 03:24:50;;;;;;;28.55;21.20;;;;;;;9.13;83.21;98978.84;6057049;23;20130;-76
2022/04/08 03:27:17;;;;;;;22.27;18.92;;;;;;;8.91;83.35;98971.34;6058090;23;20027;-77
2022/04/08 03:29:44;;;;;;;20.92;18.27;;;;;;;8.73;83.45;98969.88;6058306;23;20030;-76
2022/04/08 03:32:10;;;;;;;25.05;19.58;;;;;;;9.19;82.90;98976.13;6057324;23;20455;-76
2022/04/08 03:34:38;;;;;;;25.08;19.38;;;;;;;9.19;82.62;99005.75;6056648;23;20015;-76
2022/04/08 03:37:06;;;;;;;21.85;19.27;;;;;;;9.20;82.93;99010.13;6033417;23;20094;-76
2022/04/08 03:39:32;;;;;;;33.78;19.95;;;;;;;8.99;82.60;98984.28;6056446;23;20022;-77
2022/04/08 03:41:58;;;;;;;27.27;18.80;;;;;;;9.14;82.70;99044.25;6058113;23;20513;-76
2022/04/08 03:44:23;;;;;;;21.85;17.73;;;;;;;9.04;83.12;99006.03;6056797;23;20518;-77
2022/04/08 03:46:49;;;;;;;26.92;19.83;;;;;;;8.89;83.29;98991.44;6057369;23;20073;-77
2022/04/08 03:49:15;;;;;;;29.50;18.45;;;;;;;9.06;83.01;99051.34;6056411;23;20018;-76
2022/04/08 03:51:46;;;;;;;25.10;19.02;;;;;;;8.81;83.08;99071.78;6055884;23;20026;-76
2022/04/08 03:54:12;;;;;;;21.70;19.08;;;;;;;8.64;83.17;99072.91;6054288;23;20053;-76
2022/04/08 03:56:43;;;;;;;20.35;17.48;;;;;;;8.79;83.51;99077.03;6055837;23;20441;-76
2022/04/08 03:59:10;;;;;;;20.13;18.00;;;;;;;8.72;83.89;99087.63;6056887;23;20035;-77
2022/04/08 04:01:36;;;;;;;23.27;18.52;;;;;;;8.79;83.23;99066.56;6056338;23;20015;-76
2022/04/08 04:04:03;;;;;;;31.77;18.02;;;;;;;8.92;83.04;99076.84;6058517;23;20447;-76
2022/04/08 04:06:29;;;;;;;20.80;17.38;;;;;;;9.01;82.46;99085.44;6057822;23;20019;-77
2022/04/08 04:08:55;;;;;;;25.48;18.48;;;;;;;8.63;82.37;99037.16;6032401;23;20026;-76
2022/04/08 04:11:22;;;;;;;24.33;17.73;;;;;;;8.88;82.56;99050.75;6057997;23;20029;-77
2022/04/08 04:13:48;;;;;;;26.60;19.13;;;;;;;8.98;82.18;99077.63;6029384;23;20022;-76
2022/04/08 04:16:14;;;;;;;21.23;18.55;;;;;;;8.90;81.90;99084.75;6057788;23;20011;-76
2022/04/08 04:18:39;;;;;;;19.55;17.48;;;;;;;8.81;81.87;99051.72;6055558;23;20061;-77
2022/04/08 04:21:05;;;;;;;26.52;19.58;;;;;;;9.11;82.09;99090.50;6050667;23;20033;-78
2022/04/08 04:23:34;;;;;;;21.25;16.67;;;;;;;8.82;82.44;99047.34;6058116;23;20026;-78
2022/04/08 04:26:00;;;;;;;21.92;17.63;;;;;;;8.78;81.68;99058.75;6032471;23;20038;-77
2022/04/08 04:28:30;;;;;;;21.10;16.10;;;;;;;8.89;81.88;99088.22;6055639;23;20010;-77
2022/04/08 04:31:03;;;;;;;20.77;17.17;;;;;;;8.92;81.56;99103.91;6056961;23;20060;-75
2022/04/08 04:33:29;;;;;;;26.03;17.30;;;;;;;9.13;81.33;99107.94;6057254;23;20125;-76
2022/04/08 04:36:01;;;;;;;24.75;16.60;;;;;;;9.22;81.18;99099.06;6054617;23;20098;-73
2022/04/08 04:38:27;;;;;;;23.95;16.13;;;;;;;9.02;81.02;99108.09;6053115;23;20107;-73
2022/04/08 04:40:52;;;;;;;23.08;16.20;;;;;;;8.78;81.46;99058.75;6067056;23;20027;-73
2022/04/08 04:43:18;;;;;;;19.90;16.52;;;;;;;9.08;80.26;99073.09;6033474;23;20058;-74
2022/04/08 04:45:44;;;;;;;25.30;16.25;;;;;;;9.00;80.57;99085.47;6052407;23;20462;-74
2022/04/08 04:48:11;;;;;;;21.55;15.32;;;;;;;8.67;81.28;99069.38;6054782;23;20033;-74
2022/04/08 04:50:37;;;;;;;25.10;16.92;;;;;;;9.09;79.68;99080.94;6056751;23;20029;-73
2022/04/08 04:53:03;;;;;;;27.08;17.67;;;;;;;8.62;81.49;99077.28;6057961;23;20072;-73
2022/04/08 04:55:29;;;;;;;22.88;14.93;;;;;;;9.19;80.55;99128.78;6056030;23;20490;-73
2022/04/08 04:57:57;;;;;;;19.08;15.82;;;;;;;9.17;79.07;99106.13;6057669;23;20023;-73
2022/04/08 05:00:27;;;;;;;22.30;16.73;;;;;;;9.27;79.73;99095.50;6058361;23;20023;-74
2022/04/08 05:02:52;;;;;;;23.38;15.55;;;;;;;9.44;78.42;99139.72;6055110;23;20085;-73
2022/04/08 05:05:18;;;;;;;23.73;16.55;;;;;;;9.70;78.85;99131.44;6057404;23;20023;-73
2022/04/08 05:07:44;;;;;;;18.73;15.00;;;;;;;9.54;78.24;99116.88;6055940;23;20042;-72
2022/04/08 05:10:10;;;;;;;23.35;16.52;;;;;;;10.05;79.02;99160.53;6058937;23;20006;-72
2022/04/08 05:12:36;;;;;;;15.85;14.20;;;;;;;10.19;76.40;99141.94;6057997;23;20093;-73
2022/04/08 05:15:06;;;;;;;17.58;15.10;;;;;;;10.50;76.61;99123.88;6058445;23;20018;-73
2022/04/08 05:17:35;;;;;;;17.33;15.48;;;;;;;11.16;72.87;99130.28;6057563;23;20746;-74
2022/04/08 05:20:16;;;;;;;21.38;16.45;;;;;;;11.48;70.15;99128.69;6050165;23;20043;-73
2022/04/08 05:22:41;;;;;;;23.20;14.57;;;;;;;11.92;70.02;99142.50;6056310;23;20022;-73
2022/04/08 05:25:10;;;;;;;22.73;15.55;;;;;;;12.46;69.68;99190.13;6057329;23;20015;-73
2022/04/08 05:27:43;;;;;;;25.88;16.48;;;;;;;12.55;66.90;99174.97;6033325;23;20027;-73
2022/04/08 05:30:17;;;;;;;20.77;17.63;;;;;;;13.30;66.17;99185.97;6062053;23;20023;-73
2022/04/08 05:32:46;;;;;;;26.35;16.83;;;;;;;12.72;65.31;99162.22;6055830;23;20046;-73
2022/04/08 05:35:17;;;;;;;29.48;16.60;;;;;;;12.78;64.70;99148.00;6056013;23;20580;-74
2022/04/08 05:37:46;;;;;;;21.60;14.00;;;;;;;13.48;64.84;99171.34;6057981;23;20056;-74
2022/04/08 05:40:16;;;;;;;27.65;16.33;;;;;;;13.45;64.20;99161.75;6056875;23;20015;-73
2022/04/08 05:42:44;;;;;;;19.23;13.82;;;;;;;13.26;64.06;99202.75;6056041;23;20081;-73
2022/04/08 05:45:11;;;;;;;19.92;14.88;;;;;;;12.89;64.81;99209.09;6057086;23;20022;-73
2022/04/08 05:47:38;;;;;;;20.38;14.07;;;;;;;12.13;68.11;99217.34;6056747;23;20034;-74
2022/04/08 05:50:06;;;;;;;22.25;13.43;;;;;;;12.71;66.70;99209.63;6055896;23;20141;-73
2022/04/08 05:52:32;;;;;;;21.70;13.00;;;;;;;12.79;65.84;99194.50;6054691;23;20023;-73
2022/04/08 05:54:59;;;;;;;24.25;15.10;;;;;;;12.56;64.95;99197.75;6059224;23;20060;-73
2022/04/08 05:57:26;;;;;;;14.75;13.25;;;;;;;12.67;64.30;99214.13;6057313;23;20058;-74
2022/04/08 05:59:59;;;;;;;16.67;13.35;;;;;;;12.93;63.46;99202.00;6057756;23;20019;-74
2022/04/08 06:02:25;;;;;;;18.08;13.30;;;;;;;13.08;63.28;99197.09;6058249;23;20031;-74
2022/04/08 06:04:50;;;;;;;22.90;13.82;;;;;;;13.40;61.83;99205.00;6057644;23;20038;-74
2022/04/08 06:07:16;;;;;;;17.70;13.10;;;;;;;13.73;62.33;99234.69;6059897;23;20328;-74
2022/04/08 06:09:41;;;;;;;17.00;12.80;;;;;;;13.72;61.68;99215.38;6056500;23;20026;-74
2022/04/08 06:12:07;;;;;;;16.35;12.68;;;;;;;13.23;62.26;99219.50;6057047;23;20023;-74
2022/04/08 06:14:33;;;;;;;19.40;12.77;;;;;;;13.79;62.16;99225.72;6059348;23;20023;-74
2022/04/08 06:17:00;;;;;;;20.25;14.90;;;;;;;13.62;61.29;99271.06;6058206;23;20025;-74
2022/04/08 06:19:31;;;;;;;19.00;13.38;;;;;;;14.13;62.75;99251.84;6058013;23;20356;-74
2022/04/08 06:21:57;;;;;;;31.75;14.57;;;;;;;14.12;61.25;99252.78;6053279;23;20065;-73
2022/04/08 06:24:24;;;;;;;20.85;13.05;;;;;;;14.03;62.04;99229.34;6058786;23;20080;-74
2022/04/08 06:26:50;;;;;;;27.00;13.63;;;;;;;13.52;62.00;99217.78;6058186;23;20049;-74
2022/04/08 06:29:15;;;;;;;18.33;11.82;;;;;;;13.62;61.05;99227.13;6058338;23;20530;-74
2022/04/08 06:31:42;;;;;;;16.77;12.82;;;;;;;13.45;62.50;99271.59;6058494;23;20018;-73
2022/04/08 06:34:09;;;;;;;23.42;13.55;;;;;;;13.71;63.52;99249.69;6062093;23;20014;-74
2022/04/08 06:36:34;;;;;;;18.05;12.23;;;;;;;13.95;62.47;99263.84;6056572;23;20714;-74
2022/04/08 06:39:00;;;;;;;14.15;12.30;;;;;;;13.33;63.78;99266.69;6057651;23;20105;-74
2022/04/08 06:41:26;;;;;;;16.98;12.30;;;;;;;13.19;63.97;99275.81;6057982;23;20458;-74
2022/04/08 06:43:51;;;;;;;29.25;13.82;;;;;;;13.01;64.09;99255.28;6058692;23;20030;-73
2022/04/08 06:46:17;;;;;;;20.73;11.60;;;;;;;13.37;63.96;99286.75;6059287;23;20013;-74
2022/04/08 06:48:42;;;;;;;20.70;12.13;;;;;;;13.37;65.08;99270.94;6057844;23;20156;-73
2022/04/08 06:51:08;;;;;;;15.40;11.63;;;;;;;13.24;64.35;99273.91;6057122;23;20023;-74
2022/04/08 06:53:34;;;;;;;17.73;12.77;;;;;;;13.43;64.17;99297.13;6057848;23;20363;-74
2022/04/08 06:56:01;;;;;;;26.33;11.65;;;;;;;13.45;64.12;99293.53;6057248;23;20019;-74
2022/04/08 06:58:28;;;;;;;15.43;12.30;;;;;;;13.49;65.05;99313.63;6058652;23;20427;-74
2022/04/08 07:00:54;;;;;;;19.10;12.75;;;;;;;13.53;63.10;99314.38;6056969;23;20026;-74
2022/04/08 07:03:20;;;;;;;16.08;11.65;;;;;;;13.40;62.89;99311.25;6033373;23;20030;-74
2022/04/08 07:05:46;;;;;;;14.32;9.80;;;;;;;13.73;62.36;99321.69;6057621;23;20034;-73
2022/04/08 07:08:13;;;;;;;17.42;11.57;;;;;;;13.92;61.76;99330.75;6058466;23;20443;-73
2022/04/08 07:10:39;;;;;;;12.52;11.10;;;;;;;13.83;62.68;99341.59;6056618;23;20371;-74
2022/04/08 07:13:07;;;;;;;18.50;11.13;;;;;;;13.71;61.41;99324.38;6058917;23;20343;-73
2022/04/08 07:15:34;;;;;;;16.92;9.70;;;;;;;13.74;60.87;99323.41;6036506;23;20478;-73
2022/04/08 07:18:00;;;;;;;12.82;10.25;;;;;;;13.82;60.35;99317.91;6059124;23;20027;-73
2022/04/08 07:20:26;;;;;;;19.73;11.68;;;;;;;13.96;61.80;99331.53;6053159;23;20023;-74
2022/04/08 07:22:52;;;;;;;13.13;11.10;;;;;;;14.28;61.88;99362.19;6056879;23;20026;-73
2022/04/08 07:25:18;;;;;;;12.65;8.35;;;;;;;14.04;59.85;99312.81;6059217;23;20006;-74
2022/04/08 07:27:48;;;;;;;13.23;9.52;;;;;;;14.23;60.61;99331.56;6056537;23;20019;-74
2022/04/08 07:30:17;;;;;;;13.15;8.77;;;;;;;14.15;59.72;99337.09;6057167;23;20030;-74
2022/04/08 07:32:43;;;;;;;12.65;8.95;;;;;;;14.46;59.37;99357.19;6058422;23;20027;-75
2022/04/08 07:35:10;;;;;;;11.82;9.27;;;;;;;14.49;59.86;99365.91;6033255;23;20019;-72
2022/04/08 07:37:36;;;;;;;10.65;8.60;;;;;;;14.36;58.04;99354.00;6056497;23;20019;-74
2022/04/08 07:40:05;;;;;;;13.15;9.38;;;;;;;14.68;58.43;99373.22;6057085;23;20015;-74
2022/04/08 07:42:31;;;;;;;13.45;8.88;;;;;;;14.62;58.55;99349.69;6058293;23;20022;-75
2022/04/08 07:44:56;;;;;;;12.48;8.50;;;;;;;14.94;58.49;99383.78;6058177;23;20050;-73
2022/04/08 07:47:27;;;;;;;15.48;8.35;;;;;;;14.88;57.99;99357.56;6056140;23;20019;-73
2022/04/08 07:49:58;;;;;;;15.13;9.52;;;;;;;14.86;57.87;99343.53;6058490;23;20022;-73
2022/04/08 07:52:25;;;;;;;12.63;9.02;;;;;;;14.79;57.04;99336.75;6057501;23;20022;-73
2022/04/08 07:54:51;;;;;;;13.38;9.55;;;;;;;14.80;58.53;99342.88;6057328;23;20027;-74
2022/04/08 07:57:17;;;;;;;11.15;8.13;;;;;;;15.20;57.84;99379.34;6055586;23;20023;-74
2022/04/08 07:59:43;;;;;;;11.35;8.45;;;;;;;15.44;57.34;99388.16;6058804;23;20529;-73
2022/04/08 08:02:08;;;;;;;13.50;9.60;;;;;;;15.63;56.83;99391.84;6056545;23;20039;-73
2022/04/08 08:04:34;;;;;;;11.65;9.30;;;;;;;15.43;56.80;99349.44;6057346;23;20139;-73
2022/04/08 08:07:00;;;;;;;10.57;7.30;;;;;;;15.75;55.68;99382.63;6059033;23;20011;-74
2022/04/08 08:09:25;;;;;;;14.93;9.20;;;;;;;15.83;54.05;99383.22;6032385;23;20046;-74
2022/04/08 08:11:57;;;;;;;9.88;7.75;;;;;;;15.89;54.68;99381.25;6059161;23;20011;-73
2022/04/08 08:14:22;;;;;;;8.10;6.80;;;;;;;15.85;54.87;99355.81;6053578;23;20044;-74
2022/04/08 08:16:48;;;;;;;9.00;7.00;;;;;;;16.03;54.71;99336.59;6055133;23;20493;-73
2022/04/08 08:19:15;;;;;;;17.70;7.65;;;;;;;16.32;54.38;99351.31;6055897;23;20034;-74
2022/04/08 08:21:40;;;;;;;9.10;6.22;;;;;;;16.38;52.40;99371.38;6053927;23;20027;-74
2022/04/08 08:24:06;;;;;;;10.00;6.00;;;;;;;16.64;52.72;99381.75;6056607;23;20033;-73
2022/04/08 08:26:32;;;;;;;13.65;5.28;;;;;;;16.63;51.13;99384.47;6019559;23;20447;-74
2022/04/08 08:28:58;;;;;;;11.27;4.20;;;;;;;16.89;49.05;99399.31;6021689;23;20157;-73
2022/04/08 08:31:24;;;;;;;9.30;4.38;;;;;;;16.60;49.23;99352.81;6059101;23;20871;-74
2022/04/08 08:33:50;;;;;;;7.18;3.28;;;;;;;16.98;49.44;99398.06;6058889;23;20054;-74
2022/04/08 08:36:17;;;;;;;5.63;3.53;;;;;;;16.83;48.49;99365.13;6058022;23;20098;-74
2022/04/08 08:38:44;;;;;;;6.35;4.00;;;;;;;16.93;48.00;99360.28;6058383;23;20023;-74
2022/04/08 08:41:10;;;;;;;8.50;5.13;;;;;;;17.30;47.73;99399.31;6057441;23;20011;-74
2022/04/08 08:43:36;;;;;;;10.80;4.43;;;;;;;17.32;48.08;99412.50;6054034;23;20022;-74
2022/04/08 08:46:04;;;;;;;8.57;3.95;;;;;;;17.34;47.93;99400.91;6057525;23;20033;-74
2022/04/08 08:48:38;;;;;;;7.90;4.18;;;;;;;17.41;47.29;99412.09;6057501;23;20126;-74
2022/04/08 08:51:06;;;;;;;6.75;3.97;;;;;;;17.43;47.58;99408.44;6056397;23;20031;-73
2022/04/08 08:53:33;;;;;;;6.00;4.10;;;;;;;17.46;46.09;99376.47;6047240;23;20022;-74
2022/04/08 08:56:00;;;;;;;7.28;4.20;;;;;;;17.43;48.14;99354.56;6068585;23;20034;-74
2022/04/08 08:58:29;;;;;;;6.90;4.65;;;;;;;17.90;46.87;99404.59;6056979;23;20010;-74
2022/04/08 09:00:55;;;;;;;9.23;4.18;;;;;;;17.82;47.37;99359.00;6032918;23;20019;-74
2022/04/08 09:03:20;;;;;;;8.52;3.58;;;;;;;18.09;46.93;99389.53;6055979;23;20019;-73
2022/04/08 09:05:47;;;;;;;11.40;3.92;;;;;;;18.22;46.63;99405.75;6058772;23;20343;-73
2022/04/08 09:08:13;;;;;;;6.63;3.85;;;;;;;17.97;46.76;99374.19;6033232;23;20030;-73
2022/04/08 09:10:49;;;;;;;6.72;3.40;;;;;;;18.04;45.51;99374.78;6055524;23;20011;-73
2022/04/08 09:13:21;;;;;;;10.57;3.65;;;;;;;18.37;45.69;99369.63;6057893;23;20486;-74
2022/04/08 09:16:01;;;;;;;9.75;3.97;;;;;;;18.59;45.18;99401.31;6059508;23;20034;-73
2022/04/08 09:18:34;;;;;;;7.75;3.38;;;;;;;18.54;45.40;99379.41;6065720;23;20037;-73
2022/04/08 09:21:01;;;;;;;5.35;2.88;;;;;;;18.60;45.24;99387.09;6051666;23;20076;-74
2022/04/08 09:23:28;;;;;;;12.32;3.72;;;;;;;18.71;44.47;99399.84;6057594;23;20015;-72
2022/04/08 09:26:09;;;;;;;7.15;3.47;;;;;;;18.82;43.81;99370.09;6059247;23;20438;-72
2022/04/08 09:28:37;;;;;;;4.45;2.92;;;;;;;18.74;44.00;99376.63;6059865;23;20010;-72
2022/04/08 09:31:03;;;;;;;7.45;3.63;;;;;;;18.83;44.38;99378.00;6061129;23;19999;-73
2022/04/08 09:33:30;;;;;;;6.70;3.50;;;;;;;19.08;46.26;99404.22;6056871;23;20029;-73
2022/04/08 09:35:57;;;;;;;4.78;3.33;;;;;;;19.11;44.99;99405.84;6058971;23;20175;-73
2022/04/08 09:38:25;;;;;;;11.60;2.80;;;;;;;19.21;42.76;99377.81;6056075;23;20050;-73
2022/04/08 09:40:59;;;;;;;4.53;2.67;;;;;;;19.04;40.79;99364.56;6058823;23;20018;-73
2022/04/08 09:43:33;;;;;;;10.25;3.33;;;;;;;19.33;42.06;99398.47;6060821;23;20066;-73
2022/04/08 09:46:16;;;;;;;4.78;1.83;;;;;;;19.17;42.70;99374.47;6058332;23;20018;-73
2022/04/08 09:48:44;;;;;;;6.55;2.45;;;;;;;19.11;42.78;99373.94;6059087;23;20027;-73
2022/04/08 09:51:16;;;;;;;10.52;3.03;;;;;;;19.63;41.83;99395.13;6058267;23;20023;-73
2022/04/08 09:53:42;;;;;;;3.07;1.37;;;;;;;19.62;40.58;99401.41;6057245;23;20078;-73
2022/04/08 09:56:15;;;;;;;6.88;2.60;;;;;;;19.44;41.38;99358.00;6033702;23;20473;-73
2022/04/08 09:58:48;;;;;;;4.38;2.78;;;;;;;19.69;39.83;99405.47;6057391;23;20007;-73
2022/04/08 10:01:16;;;;;;;8.10;3.28;;;;;;;19.65;40.04;99366.63;6060799;23;20391;-73
2022/04/08 10:03:42;;;;;;;4.43;2.60;;;;;;;19.81;39.65;99407.47;6032113;23;20031;-74
2022/04/08 10:06:08;;;;;;;6.63;3.50;;;;;;;19.92;39.71;99364.25;6058298;23;20054;-74
2022/04/08 10:08:34;;;;;;;10.00;3.63;;;;;;;20.33;40.18;99394.88;6058950;23;20038;-74
2022/04/08 10:11:10;;;;;;;12.27;3.85;;;;;;;20.52;39.08;99403.53;6056379;23;20015;-73
2022/04/08 10:13:46;;;;;;;5.95;3.20;;;;;;;20.53;38.23;99407.91;6057904;23;20029;-73
2022/04/08 10:16:23;;;;;;;6.32;2.80;;;;;;;20.36;39.38;99374.22;6061998;23;20014;-73
2022/04/08 10:18:50;;;;;;;4.35;2.33;;;;;;;20.52;40.19;99374.22;6055684;23;20030;-73
2022/04/08 10:21:16;;;;;;;6.68;2.80;;;;;;;20.69;38.87;99388.41;6052391;23;20023;-73
2022/04/08 10:23:49;;;;;;;7.35;2.88;;;;;;;20.77;38.73;99394.16;6057063;23;20029;-73
2022/04/08 10:26:23;;;;;;;4.43;2.67;;;;;;;21.05;38.16;99396.91;6058075;23;20447;-73
2022/04/08 10:28:51;;;;;;;7.18;2.90;;;;;;;21.35;39.39;99411.16;6048298;23;20021;-73
2022/04/08 10:31:23;;;;;;;18.58;3.78;;;;;;;21.87;39.20;99405.31;6079368;23;20035;-73
2022/04/08 10:34:00;;;;;;;9.10;4.97;;;;;;;21.65;38.75;99400.44;6057377;23;20015;-74
2022/04/08 10:36:35;;;;;;;10.90;2.67;;;;;;;21.68;37.59;99370.88;6058275;23;20019;-73
2022/04/08 10:39:18;;;;;;;6.07;3.50;;;;;;;22.34;38.94;99362.22;6057099;23;20117;-74
2022/04/08 10:41:48;;;;;;;;;;;;;;;22.30;40.38;99367.84;6060187;23;20023;-74
2022/04/08 10:44:14;;;;;;;8.68;3.63;;;;;;;21.86;37.55;99375.06;6058707;23;19924;-74
2022/04/08 10:46:52;;;;;;;9.05;3.55;;;;;;;22.56;39.32;99387.53;6059919;23;20038;-74
2022/04/08 10:49:20;;;;;;;11.00;4.18;;;;;;;22.66;37.09;99391.28;6059660;23;20449;-74
2022/04/08 10:51:49;;;;;;;5.65;3.38;;;;;;;22.62;37.25;99394.31;6056505;23;20023;-74
2022/04/08 10:54:15;;;;;;;6.80;3.33;;;;;;;22.16;36.93;99383.91;6059105;23;20082;-74
2022/04/08 10:56:41;;;;;;;11.10;5.07;;;;;;;22.50;37.57;99386.13;6057759;23;20019;-74
2022/04/08 10:59:07;;;;;;;12.68;4.88;;;;;;;22.61;37.58;99376.53;6059818;23;20071;-73
2022/04/08 11:01:43;;;;;;;14.55;4.68;;;;;;;22.47;36.62;99374.75;6057909;23;20022;-74
2022/04/08 11:04:09;;;;;;;11.48;6.43;;;;;;;22.29;35.67;99374.16;6058839;23;20014;-74
2022/04/08 11:06:36;;;;;;;13.02;6.40;;;;;;;22.03;35.51;99410.53;6056804;23;20351;-74
2022/04/08 11:09:09;;;;;;;14.15;5.78;;;;;;;22.01;35.73;99405.31;6058760;23;20026;-74
2022/04/08 11:11:40;;;;;;;10.85;4.78;;;;;;;22.33;36.07;99378.34;6056210;23;20466;-73
2022/04/08 11:14:07;;;;;;;17.65;7.35;;;;;;;22.75;35.79;99385.31;6058690;23;20447;-73
2022/04/08 11:16:35;;;;;;;23.30;10.40;;;;;;;22.89;34.21;99394.25;6056222;23;20015;-73
2022/04/08 11:19:21;;;;;;;20.23;9.68;;;;;;;22.79;34.36;99371.78;6058193;23;20506;-73
2022/04/08 11:21:48;;;;;;;35.53;12.07;;;;;;;22.90;35.04;99367.41;6061965;23;20038;-73
2022/04/08 11:24:19;;;;;;;14.93;7.63;;;;;;;22.89;34.13;99384.41;6057712;23;20110;-73
2022/04/08 11:26:53;;;;;;;16.15;7.00;;;;;;;22.93;34.99;99403.78;6058382;23;20038;-73